Time;durP1;ratioP1;P1;durP2;ratioP2;P2;SDS_P1;SDS_P2;PMS_P1;PMS_P2;Temp;Humidity;BMP_temperature;BMP_pressure;BME280_temperature;BME280_humidity;BME280_pressure;Samples;Min_cycle;Max_cycle;Signal;HPM_P1;HPM_P2
2023/10/12 04:33:24;;;;;;;0.00;0.00;;;19.40;86.50;;;;;;4894105;29;20497;-84
2023/10/12 04:43:54;;;;;;;0.00;0.00;;;19.40;86.40;;;;;;4849951;29;20033;-86
2023/10/12 04:48:50;;;;;;;0.00;0.00;;;19.30;86.40;;;;;;4884755;29;20059;-90
2023/10/12 04:51:19;;;;;;;0.00;0.00;;;19.30;86.60;;;;;;4868058;29;20037;-90
2023/10/12 04:53:58;;;;;;;0.10;0.10;;;19.30;86.60;;;;;;4884351;29;20050;-83
2023/10/12 04:56:26;;;;;;;0.10;0.10;;;19.30;86.60;;;;;;4900787;29;20064;-88
2023/10/12 04:59:15;;;;;;;0.10;0.10;;;19.30;86.50;;;;;;4887171;29;20119;-83
2023/10/12 05:22:06;;;;;;;0.20;0.10;;;19.60;85.90;;;;;;4799539;29;20124;-88
2023/10/12 05:24:38;;;;;;;0.05;0.05;;;19.60;85.90;;;;;;4849693;29;20045;-91
2023/10/12 05:29:52;;;;;;;0.10;0.10;;;19.60;85.90;;;;;;4896469;29;20043;-86
2023/10/12 05:39:51;;;;;;;0.00;0.00;;;19.60;86.10;;;;;;4897298;29;20067;-88
2023/10/12 05:42:22;;;;;;;0.00;0.00;;;19.70;86.10;;;;;;4895951;29;20127;-87
2023/10/12 05:44:53;;;;;;;0.05;0.05;;;19.60;86.30;;;;;;4885105;29;20119;-86
2023/10/12 05:47:29;;;;;;;0.00;0.00;;;19.60;86.30;;;;;;4885083;29;20060;-87
2023/10/12 05:49:57;;;;;;;0.10;0.10;;;19.60;86.30;;;;;;4883694;29;20033;-86
2023/10/12 05:52:24;;;;;;;0.00;0.00;;;19.70;86.20;;;;;;4897658;29;20461;-92
2023/10/12 05:55:07;;;;;;;0.00;0.00;;;19.70;86.20;;;;;;4884734;29;20111;-85
2023/10/12 05:57:48;;;;;;;;;;;;;;;;;;;;;
2023/10/12 06:03:04;;;;;;;0.00;0.00;;;19.70;86.50;;;;;;4898459;29;20035;-83
2023/10/12 06:05:36;;;;;;;0.10;0.10;;;19.70;86.30;;;;;;4882103;29;20120;-83
2023/10/12 06:11:29;;;;;;;0.00;0.00;;;19.70;86.30;;;;;;4901737;29;20474;-83
2023/10/12 06:14:34;;;;;;;;;;;;;;;;;;;;;
2023/10/12 06:17:39;;;;;;;0.00;0.00;;;19.70;86.50;;;;;;4885498;29;20139;-84
2023/10/12 06:20:40;;;;;;;0.10;0.10;;;19.70;86.50;;;;;;4885203;29;20032;-86
2023/10/12 06:23:14;;;;;;;0.10;0.10;;;19.80;86.50;;;;;;4884004;29;20404;-83
2023/10/12 06:36:41;;;;;;;0.05;0.05;;;19.70;86.50;;;;;;4908742;29;20570;-84
2023/10/12 07:18:59;;;;;;;0.10;0.10;;;20.00;86.40;;;;;;4894237;23;20072;-87
2023/10/12 07:21:25;;;;;;;0.00;0.00;;;20.10;86.40;;;;;;4880761;29;20029;-87
2023/10/12 07:23:52;;;;;;;0.10;0.10;;;20.10;86.30;;;;;;4887910;29;20067;-87
2023/10/12 07:26:22;;;;;;;0.00;0.00;;;20.10;86.40;;;;;;4904757;29;20496;-87
2023/10/12 07:29:18;;;;;;;0.30;0.10;;;20.10;86.40;;;;;;4903113;29;20029;-91
2023/10/12 07:31:48;;;;;;;0.10;0.10;;;20.10;86.40;;;;;;4895469;29;20080;-88
2023/10/12 07:34:18;;;;;;;0.00;0.00;;;20.10;86.40;;;;;;4869030;29;20056;-86
2023/10/12 07:36:53;;;;;;;0.05;0.05;;;20.10;86.40;;;;;;4869049;29;20423;-86
2023/10/12 07:42:05;;;;;;;0.10;0.10;;;20.20;86.50;;;;;;4888073;29;20040;-86
2023/10/12 07:45:06;;;;;;;0.10;0.10;;;20.20;86.50;;;;;;4885452;29;20405;-87
2023/10/12 07:47:40;;;;;;;0.10;0.10;;;20.30;86.50;;;;;;4883084;29;20061;-81
2023/10/12 07:50:11;;;;;;;0.13;0.00;;;20.30;86.40;;;;;;4866892;29;20344;-86
2023/10/12 07:55:04;;;;;;;0.13;0.10;;;20.30;86.60;;;;;;4885461;29;20065;-85
2023/10/12 07:57:36;;;;;;;0.00;0.00;;;20.40;86.50;;;;;;4868804;29;20025;-83
2023/10/12 08:08:33;;;;;;;0.10;0.10;;;20.60;86.30;;;;;;4792096;30;20038;-82
2023/10/12 08:11:08;;;;;;;0.10;0.10;;;20.60;86.20;;;;;;4806607;29;20070;-83
2023/10/12 08:23:41;;;;;;;0.10;0.10;;;20.70;86.10;;;;;;4803686;29;20434;-84
2023/10/12 08:26:20;;;;;;;0.10;0.10;;;20.80;86.10;;;;;;4868114;29;20033;-83
2023/10/12 08:28:55;;;;;;;0.00;0.00;;;20.70;86.10;;;;;;4884898;29;20025;-85
2023/10/12 08:31:27;;;;;;;0.05;0.05;;;20.80;86.10;;;;;;4870079;29;20029;-84
2023/10/12 08:34:03;;;;;;;0.10;0.10;;;20.90;85.80;;;;;;4886022;29;20028;-84
2023/10/12 08:36:29;;;;;;;0.00;0.00;;;20.80;85.80;;;;;;4886618;29;20036;-82
2023/10/12 08:38:55;;;;;;;0.00;0.00;;;20.90;85.60;;;;;;4886388;29;20046;-84
2023/10/12 08:43:59;;;;;;;0.00;0.00;;;21.00;85.60;;;;;;4903406;29;20037;-84
2023/10/12 08:52:18;;;;;;;0.10;0.10;;;21.00;85.60;;;;;;4903100;29;20461;-81
2023/10/12 08:55:08;;;;;;;0.00;0.00;;;21.10;85.50;;;;;;4886267;29;20029;-83
2023/10/12 08:58:15;;;;;;;0.10;0.10;;;21.00;85.60;;;;;;4917865;29;20048;-83
2023/10/12 09:01:07;;;;;;;0.00;0.00;;;21.20;85.40;;;;;;4886146;29;20084;-83
2023/10/12 09:03:32;;;;;;;0.05;0.05;;;21.20;85.40;;;;;;4883340;29;20088;-83
2023/10/12 09:05:58;;;;;;;0.00;0.00;;;21.30;85.20;;;;;;4867334;29;20097;-83
2023/10/12 09:08:39;;;;;;;0.10;0.10;;;21.20;85.10;;;;;;4884026;29;20508;-84
2023/10/12 09:13:35;;;;;;;0.00;0.00;;;21.20;85.30;;;;;;4883833;29;20029;-83
2023/10/12 09:16:09;;;;;;;0.00;0.00;;;21.20;85.30;;;;;;4867009;29;20621;-83
2023/10/12 09:18:43;;;;;;;0.00;0.00;;;21.30;85.30;;;;;;4886486;29;20052;-83
2023/10/12 09:23:50;;;;;;;0.00;0.00;;;21.30;84.90;;;;;;4884110;29;20024;-82
2023/10/12 09:26:21;;;;;;;0.00;0.00;;;21.50;84.70;;;;;;4882691;29;20040;-82
2023/10/12 09:39:54;;;;;;;0.00;0.00;;;21.50;84.50;;;;;;4902041;29;20099;-86
2023/10/12 11:51:52;;;;;;;0.00;0.00;;;23.00;77.10;;;;;;5987283;23;20024;31
2023/10/12 12:01:29;;;;;;;0.10;0.10;;;22.90;77.60;;;;;;5029954;23;20540;-85
2023/10/12 12:03:55;;;;;;;0.00;0.00;;;22.80;77.40;;;;;;4887251;29;20028;-85
2023/10/12 12:06:34;;;;;;;0.00;0.00;;;22.70;77.60;;;;;;4887240;29;20035;-85
2023/10/12 12:08:59;;;;;;;0.00;0.00;;;22.70;77.80;;;;;;4887292;29;20028;-86
2023/10/12 12:11:31;;;;;;;0.00;0.00;;;22.70;77.80;;;;;;4886973;29;20373;-85
2023/10/12 12:14:06;;;;;;;0.00;0.00;;;22.80;77.80;;;;;;4903945;29;20485;-87
2023/10/12 12:16:34;;;;;;;0.00;0.00;;;22.80;77.90;;;;;;4886767;29;20025;-83
2023/10/12 12:19:00;;;;;;;0.00;0.00;;;22.80;77.50;;;;;;4872672;29;20049;-86
2023/10/12 12:21:29;;;;;;;0.00;0.00;;;23.00;77.30;;;;;;4889488;29;20032;-85
2023/10/12 12:26:49;;;;;;;0.00;0.00;;;23.20;77.00;;;;;;4903352;29;20050;-85
2023/10/12 12:29:16;;;;;;;0.00;0.00;;;23.30;76.70;;;;;;4886614;29;20400;-85
2023/10/12 12:31:42;;;;;;;0.00;0.00;;;23.30;76.50;;;;;;4886787;29;20024;-84
2023/10/12 12:34:08;;;;;;;0.00;0.00;;;23.30;75.80;;;;;;4886266;29;20087;-86
2023/10/12 12:36:35;;;;;;;0.00;0.00;;;23.30;76.10;;;;;;4886909;29;20025;-86
2023/10/12 12:39:09;;;;;;;0.00;0.00;;;23.40;76.10;;;;;;4886285;29;20029;-89
2023/10/12 12:41:35;;;;;;;0.00;0.00;;;23.60;75.00;;;;;;4903468;29;20060;-90
2023/10/12 12:44:02;;;;;;;0.00;0.00;;;23.70;75.00;;;;;;4903235;29;20083;-88
2023/10/12 12:46:31;;;;;;;0.00;0.00;;;23.60;74.50;;;;;;4886658;29;20024;-89
2023/10/12 12:48:56;;;;;;;0.10;0.10;;;23.60;74.30;;;;;;4902986;29;20033;-88
2023/10/12 12:51:27;;;;;;;0.00;0.00;;;23.50;74.40;;;;;;4903458;29;20025;-88
2023/10/12 12:53:53;;;;;;;0.00;0.00;;;23.40;74.60;;;;;;4886268;29;20548;-87
2023/10/12 12:56:24;;;;;;;0.00;0.00;;;23.30;74.70;;;;;;4903030;29;20198;-87
2023/10/12 13:01:47;;;;;;;0.00;0.00;;;23.60;74.40;;;;;;4903005;29;20056;-84
2023/10/12 13:04:14;;;;;;;0.00;0.00;;;23.80;74.90;;;;;;4885715;29;20056;-87
2023/10/12 13:06:40;;;;;;;0.00;0.00;;;23.90;74.60;;;;;;4902422;29;20636;-86
2023/10/12 13:09:05;;;;;;;0.00;0.00;;;23.90;73.50;;;;;;4886065;29;20102;-85
2023/10/12 13:11:34;;;;;;;0.00;0.00;;;23.80;73.60;;;;;;4903089;29;20064;-86
2023/10/12 13:14:00;;;;;;;0.10;0.10;;;23.80;73.80;;;;;;4885972;29;20076;-86
2023/10/12 13:16:25;;;;;;;0.10;0.10;;;23.90;74.10;;;;;;4902415;29;20032;-85
2023/10/12 13:18:51;;;;;;;0.00;0.00;;;23.80;73.20;;;;;;4885629;29;20516;-86
2023/10/12 13:21:17;;;;;;;0.00;0.00;;;23.90;73.00;;;;;;4882667;29;20033;-87
2023/10/12 13:23:44;;;;;;;0.00;0.00;;;23.90;72.70;;;;;;4867308;29;20026;-86
2023/10/12 13:26:12;;;;;;;0.05;0.05;;;24.00;72.60;;;;;;4867034;29;20025;-80
2023/10/12 13:28:48;;;;;;;0.00;0.00;;;24.00;71.70;;;;;;4867106;29;20025;-86
2023/10/12 13:31:14;;;;;;;0.00;0.00;;;24.10;72.50;;;;;;4868547;29;20112;-80
2023/10/12 13:34:11;;;;;;;0.00;0.00;;;24.20;72.10;;;;;;4902171;29;20024;-80
2023/10/12 13:36:39;;;;;;;0.00;0.00;;;24.30;72.00;;;;;;4884907;29;20096;-84
2023/10/12 13:39:09;;;;;;;0.00;0.00;;;24.30;71.10;;;;;;4896150;29;20027;-77
2023/10/12 13:41:35;;;;;;;0.00;0.00;;;24.20;71.00;;;;;;4878725;29;20027;-86
2023/10/12 13:44:05;;;;;;;0.00;0.00;;;24.20;71.00;;;;;;4881982;29;20404;-80
2023/10/12 13:46:32;;;;;;;0.00;0.00;;;24.20;70.50;;;;;;4884085;29;20035;-82
2023/10/12 13:48:57;;;;;;;0.00;0.00;;;24.20;70.40;;;;;;4885344;29;20475;-84
2023/10/12 13:51:31;;;;;;;0.00;0.00;;;24.10;70.20;;;;;;4898675;29;20028;-83
2023/10/12 13:53:57;;;;;;;0.00;0.00;;;23.90;70.50;;;;;;4883363;29;20056;-83
2023/10/12 13:56:58;;;;;;;;;;;;;;;;;;;;;
2023/10/12 13:59:27;;;;;;;0.00;0.00;;;24.00;71.40;;;;;;4900522;29;20024;-82
2023/10/12 14:01:53;;;;;;;0.00;0.00;;;24.00;71.20;;;;;;4874049;29;20048;-81
2023/10/12 14:04:33;;;;;;;0.00;0.00;;;23.90;71.20;;;;;;4901226;29;20108;-81
2023/10/12 14:07:02;;;;;;;0.00;0.00;;;24.00;71.40;;;;;;4883375;29;20029;-81
2023/10/12 14:09:31;;;;;;;0.10;0.00;;;24.10;71.30;;;;;;4882230;29;20445;-83
2023/10/12 14:11:59;;;;;;;0.10;0.10;;;24.10;71.10;;;;;;4884382;29;20024;-83
2023/10/12 14:14:37;;;;;;;0.10;0.05;;;24.20;70.60;;;;;;4884356;29;20048;-82
2023/10/12 14:17:38;;;;;;;0.00;0.00;;;24.20;70.90;;;;;;4900310;29;20385;-82
2023/10/12 14:20:04;;;;;;;0.00;0.00;;;24.00;70.70;;;;;;4876002;29;20104;-82
2023/10/12 14:22:45;;;;;;;0.00;0.00;;;23.90;70.80;;;;;;4882516;29;20390;-83
2023/10/12 14:25:18;;;;;;;0.08;0.08;;;23.90;71.00;;;;;;4880007;29;20029;-83
2023/10/12 14:27:49;;;;;;;0.00;0.00;;;24.10;70.90;;;;;;4884413;29;20032;-84
2023/10/12 14:30:14;;;;;;;0.00;0.00;;;24.10;70.50;;;;;;4898950;29;20112;-84
2023/10/12 14:32:43;;;;;;;0.00;0.00;;;24.00;70.10;;;;;;4884179;29;20028;-84
2023/10/12 14:35:12;;;;;;;0.00;0.00;;;24.00;70.80;;;;;;4884390;29;20020;-83
2023/10/12 14:37:38;;;;;;;0.00;0.00;;;24.10;70.50;;;;;;4884508;29;20048;-85
2023/10/12 14:40:10;;;;;;;0.00;0.00;;;24.20;70.40;;;;;;4884187;29;20450;-85
2023/10/12 14:43:06;;;;;;;0.00;0.00;;;24.30;70.60;;;;;;4898894;29;20036;-82
2023/10/12 14:45:36;;;;;;;0.00;0.00;;;24.30;70.00;;;;;;4880426;29;20036;-82
2023/10/12 14:48:09;;;;;;;0.00;0.00;;;24.10;70.00;;;;;;4883188;29;20024;-80
2023/10/12 14:50:38;;;;;;;0.00;0.00;;;24.10;70.80;;;;;;4883090;29;20033;-83
2023/10/12 14:53:09;;;;;;;0.00;0.00;;;24.10;70.40;;;;;;4884225;29;20049;-83
2023/10/12 14:55:35;;;;;;;0.00;0.00;;;23.90;70.30;;;;;;4882311;29;20021;-82
2023/10/12 14:58:02;;;;;;;0.00;0.00;;;23.90;70.30;;;;;;4884637;29;20048;-83
2023/10/12 15:00:29;;;;;;;0.00;0.00;;;23.80;70.20;;;;;;4900600;29;20048;-82
2023/10/12 15:02:57;;;;;;;0.00;0.00;;;23.80;70.60;;;;;;4900504;29;20024;-82
2023/10/12 15:05:27;;;;;;;0.00;0.00;;;23.80;70.70;;;;;;4901049;29;20028;-83
2023/10/12 15:07:57;;;;;;;0.00;0.00;;;23.80;71.00;;;;;;4884972;29;20031;-82
2023/10/12 15:10:23;;;;;;;0.00;0.00;;;23.70;70.90;;;;;;4902193;29;20132;-82
2023/10/12 15:12:50;;;;;;;0.00;0.00;;;23.80;71.10;;;;;;4904171;29;20036;-83
2023/10/12 15:15:20;;;;;;;0.00;0.00;;;23.80;71.00;;;;;;4888281;29;20029;-82
2023/10/12 15:17:46;;;;;;;0.00;0.00;;;23.80;71.20;;;;;;4904723;29;20021;-82
2023/10/12 15:20:15;;;;;;;0.05;0.05;;;23.70;71.20;;;;;;4904522;29;20386;-82
2023/10/12 15:22:44;;;;;;;0.00;0.00;;;23.70;71.40;;;;;;4873143;29;20378;-83
2023/10/12 15:25:16;;;;;;;0.00;0.00;;;23.50;71.60;;;;;;4869148;29;20032;-82
2023/10/12 15:27:42;;;;;;;0.00;0.00;;;23.50;71.60;;;;;;4886118;29;20029;-82
2023/10/12 15:30:11;;;;;;;0.00;0.00;;;23.40;71.50;;;;;;4869015;29;20029;-82
2023/10/12 15:32:43;;;;;;;0.00;0.00;;;23.40;71.70;;;;;;4897983;29;20078;-82
2023/10/12 15:35:13;;;;;;;0.00;0.00;;;23.30;71.40;;;;;;4887346;29;20036;-83
2023/10/12 15:37:46;;;;;;;0.00;0.00;;;23.20;71.70;;;;;;4887792;29;20496;-82
2023/10/12 15:40:17;;;;;;;0.00;0.00;;;23.10;71.90;;;;;;4881865;29;20029;-82
2023/10/12 15:42:44;;;;;;;0.00;0.00;;;23.10;72.00;;;;;;4869345;29;20035;-81
2023/10/12 15:45:10;;;;;;;0.00;0.00;;;23.20;72.00;;;;;;4885628;29;20029;-82
2023/10/12 15:47:36;;;;;;;0.00;0.00;;;23.10;72.10;;;;;;4869068;29;20041;-81
2023/10/12 15:50:02;;;;;;;0.00;0.00;;;23.10;72.00;;;;;;4870824;29;20020;-81
2023/10/12 15:52:27;;;;;;;0.00;0.00;;;23.10;72.10;;;;;;4869032;29;20454;-80
2023/10/12 15:54:53;;;;;;;0.00;0.00;;;23.00;72.20;;;;;;4868745;29;20029;-84
2023/10/12 15:57:19;;;;;;;0.00;0.00;;;23.00;72.60;;;;;;4868915;29;20151;-83
2023/10/12 15:59:47;;;;;;;0.00;0.00;;;22.90;73.00;;;;;;4885477;29;20021;-92
2023/10/12 16:02:13;;;;;;;0.00;0.00;;;22.90;73.30;;;;;;4890982;29;20044;-83
2023/10/12 16:04:45;;;;;;;0.00;0.00;;;22.90;73.60;;;;;;4894712;29;20446;-82
2023/10/12 16:07:16;;;;;;;0.00;0.00;;;22.90;74.00;;;;;;4892018;29;20057;-83
2023/10/12 16:09:49;;;;;;;0.00;0.00;;;22.90;74.10;;;;;;4876819;29;20495;-85
2023/10/12 16:12:19;;;;;;;0.00;0.00;;;22.90;74.20;;;;;;4878532;29;20029;-85
2023/10/12 16:14:50;;;;;;;0.00;0.00;;;22.80;74.60;;;;;;4876758;29;20481;-85
2023/10/12 16:17:15;;;;;;;0.00;0.00;;;22.90;74.60;;;;;;4875956;29;20044;-87
2023/10/12 16:19:43;;;;;;;0.00;0.00;;;22.80;74.80;;;;;;4895749;29;20072;-86
2023/10/12 16:22:08;;;;;;;0.00;0.00;;;22.80;75.00;;;;;;4879367;29;20088;-85
2023/10/12 16:24:34;;;;;;;0.00;0.00;;;22.80;75.50;;;;;;4878266;29;20029;-82
2023/10/12 16:27:00;;;;;;;0.00;0.00;;;22.80;75.70;;;;;;4894588;29;20033;-82
2023/10/12 16:29:32;;;;;;;0.00;0.00;;;22.80;75.60;;;;;;4876705;29;20481;-84
2023/10/12 16:31:58;;;;;;;0.00;0.00;;;22.70;75.70;;;;;;4894182;29;20036;-82
2023/10/12 16:34:24;;;;;;;0.00;0.00;;;22.60;75.90;;;;;;4876415;29;20027;-81
2023/10/12 16:36:50;;;;;;;0.00;0.00;;;22.50;76.30;;;;;;4893997;29;20053;-82
2023/10/12 16:39:16;;;;;;;0.00;0.00;;;22.50;76.30;;;;;;4894068;29;20080;-82
2023/10/12 16:41:42;;;;;;;0.00;0.00;;;22.50;76.50;;;;;;4878260;29;20029;-81
2023/10/12 16:44:08;;;;;;;0.00;0.00;;;22.50;76.40;;;;;;4875705;29;20037;-82
2023/10/12 16:46:34;;;;;;;0.00;0.00;;;22.40;76.40;;;;;;4894282;29;20442;-84
2023/10/12 16:49:01;;;;;;;0.08;0.08;;;22.30;76.60;;;;;;4893904;29;20469;-80
2023/10/12 16:51:26;;;;;;;0.00;0.00;;;22.30;76.90;;;;;;4899504;29;20032;-80
2023/10/12 16:53:52;;;;;;;0.05;0.05;;;22.30;76.90;;;;;;4892743;29;20635;-81
2023/10/12 16:56:17;;;;;;;0.10;0.10;;;22.30;76.90;;;;;;4893865;29;20059;-80
2023/10/12 16:58:44;;;;;;;0.00;0.00;;;22.20;76.90;;;;;;4876276;29;20149;-80
2023/10/12 17:01:13;;;;;;;0.00;0.00;;;22.30;77.00;;;;;;4877181;29;20057;-81
2023/10/12 17:03:39;;;;;;;0.03;0.00;;;22.20;77.30;;;;;;4888540;29;20028;-84
2023/10/12 17:06:07;;;;;;;0.00;0.00;;;22.30;77.40;;;;;;4891517;29;20040;-82
2023/10/12 17:09:05;;;;;;;0.00;0.00;;;22.30;77.60;;;;;;4875828;29;20040;-86
2023/10/12 17:11:34;;;;;;;0.00;0.00;;;22.30;77.70;;;;;;4890459;29;20092;-81
2023/10/12 17:14:00;;;;;;;0.00;0.00;;;22.20;77.80;;;;;;4879017;29;20029;-80
2023/10/12 17:16:30;;;;;;;0.00;0.00;;;22.20;77.90;;;;;;4877126;29;20038;-81
2023/10/12 17:19:17;;;;;;;0.00;0.00;;;22.10;78.10;;;;;;4880436;29;20537;-82
2023/10/12 17:22:17;;;;;;;0.00;0.00;;;22.10;78.20;;;;;;4895426;29;20021;-81
2023/10/12 17:24:43;;;;;;;0.00;0.00;;;22.10;78.30;;;;;;4836911;29;20040;-80
2023/10/12 17:27:11;;;;;;;0.00;0.00;;;22.00;78.50;;;;;;4867298;29;20028;-91
2023/10/12 17:29:39;;;;;;;0.10;0.10;;;22.00;78.70;;;;;;4874902;29;20117;-80
2023/10/12 17:32:07;;;;;;;0.00;0.00;;;22.00;78.60;;;;;;4874655;29;20037;-81
2023/10/12 17:34:37;;;;;;;0.10;0.10;;;22.00;78.60;;;;;;4901233;29;20032;-82
2023/10/12 17:37:06;;;;;;;0.00;0.00;;;22.00;78.60;;;;;;4890115;29;20039;-81
2023/10/12 17:39:33;;;;;;;0.00;0.00;;;22.00;78.70;;;;;;4883570;29;20080;-91
2023/10/12 17:42:00;;;;;;;0.00;0.00;;;21.90;78.80;;;;;;4886268;29;20040;-89
2023/10/12 17:44:27;;;;;;;0.00;0.00;;;21.80;78.90;;;;;;4885531;29;20028;-85
2023/10/12 17:46:53;;;;;;;0.08;0.08;;;21.80;79.00;;;;;;4885049;29;20055;-92
2023/10/12 17:49:20;;;;;;;0.00;0.00;;;21.80;79.10;;;;;;4885777;29;20044;-86
2023/10/12 17:51:49;;;;;;;0.03;0.00;;;21.90;79.00;;;;;;4880235;29;20116;-85
2023/10/12 17:54:14;;;;;;;0.00;0.00;;;21.90;78.90;;;;;;4901961;29;20044;-81
2023/10/12 17:56:44;;;;;;;0.00;0.00;;;22.00;78.80;;;;;;4884675;29;20472;-86
2023/10/12 17:59:11;;;;;;;0.00;0.00;;;22.00;78.70;;;;;;4887603;29;20092;-90
2023/10/12 18:01:37;;;;;;;0.00;0.00;;;22.00;78.60;;;;;;4870987;29;20548;-83
2023/10/12 18:04:04;;;;;;;0.00;0.00;;;22.00;78.60;;;;;;4898283;29;20033;-84
2023/10/12 18:06:31;;;;;;;0.00;0.00;;;22.00;78.60;;;;;;4902103;29;20056;-85
2023/10/12 18:09:00;;;;;;;0.00;0.00;;;21.90;78.60;;;;;;4885557;29;20036;-84
2023/10/12 18:11:29;;;;;;;0.00;0.00;;;21.90;78.80;;;;;;4902111;29;20040;-82
2023/10/12 18:13:54;;;;;;;0.00;0.00;;;21.80;78.90;;;;;;4902504;29;20393;-85
2023/10/12 18:16:29;;;;;;;0.00;0.00;;;21.80;79.10;;;;;;4901939;29;20024;-85
2023/10/12 18:18:54;;;;;;;0.00;0.00;;;21.90;79.10;;;;;;4885116;29;20033;-84
2023/10/12 18:21:51;;;;;;;0.00;0.00;;;21.80;79.10;;;;;;4881185;29;20032;-85
2023/10/12 18:24:17;;;;;;;0.00;0.00;;;21.80;79.10;;;;;;4856117;29;20508;-83
2023/10/12 18:26:46;;;;;;;0.00;0.00;;;21.90;79.10;;;;;;4879836;29;20029;-85
2023/10/12 18:29:11;;;;;;;0.00;0.00;;;21.90;78.90;;;;;;4884041;29;20036;-82
2023/10/12 18:31:40;;;;;;;0.00;0.00;;;21.90;78.80;;;;;;4899524;29;20697;-85
2023/10/12 18:34:08;;;;;;;0.00;0.00;;;21.80;79.00;;;;;;4901382;29;20039;-85
2023/10/12 18:36:35;;;;;;;0.00;0.00;;;21.80;79.00;;;;;;4891952;29;20080;-80
2023/10/12 18:39:06;;;;;;;0.00;0.00;;;21.80;79.10;;;;;;4903262;29;20508;-85
2023/10/12 18:41:37;;;;;;;0.00;0.00;;;21.80;79.40;;;;;;4904453;29;20286;-83
2023/10/12 18:44:15;;;;;;;0.00;0.00;;;21.70;79.50;;;;;;4901770;29;20025;-85
2023/10/12 18:46:43;;;;;;;0.00;0.00;;;21.70;79.80;;;;;;4888631;29;20433;-88
2023/10/12 18:49:11;;;;;;;0.00;0.00;;;21.50;80.10;;;;;;4909430;29;20397;-88
2023/10/12 18:51:38;;;;;;;0.00;0.00;;;21.60;80.20;;;;;;4885755;29;20088;-87
2023/10/12 18:54:08;;;;;;;0.00;0.00;;;21.50;80.50;;;;;;4881835;29;20492;-82
2023/10/12 18:56:34;;;;;;;0.00;0.00;;;21.60;80.40;;;;;;4887913;29;20024;-85
2023/10/12 18:59:24;;;;;;;0.00;0.00;;;21.60;80.40;;;;;;4904030;29;20028;-90
2023/10/12 19:01:53;;;;;;;0.00;0.00;;;21.60;80.40;;;;;;4884325;29;20108;-86
2023/10/12 19:04:19;;;;;;;0.00;0.00;;;21.60;80.30;;;;;;4903594;29;20047;-82
2023/10/12 19:06:45;;;;;;;0.00;0.00;;;21.50;80.40;;;;;;4885567;29;20028;-83
2023/10/12 19:09:13;;;;;;;0.00;0.00;;;21.50;80.50;;;;;;4887296;29;20528;-87
2023/10/12 19:11:39;;;;;;;0.00;0.00;;;21.40;80.70;;;;;;4883412;29;20040;-83
2023/10/12 19:14:06;;;;;;;0.00;0.00;;;21.30;80.90;;;;;;4887578;29;20031;-86
2023/10/12 19:16:34;;;;;;;0.00;0.00;;;21.40;81.00;;;;;;4885741;29;20024;-88
2023/10/12 19:19:00;;;;;;;0.00;0.00;;;21.30;81.00;;;;;;4883136;29;20405;-85
2023/10/12 19:21:26;;;;;;;0.00;0.00;;;21.30;81.10;;;;;;4903866;29;20094;-87
2023/10/12 19:23:54;;;;;;;0.00;0.00;;;21.30;81.20;;;;;;4899538;29;20392;-85
2023/10/12 19:26:20;;;;;;;0.00;0.00;;;21.30;81.40;;;;;;4903096;29;20027;-85
2023/10/12 19:28:46;;;;;;;0.00;0.00;;;21.20;81.60;;;;;;4878928;29;20529;-87
2023/10/12 19:31:13;;;;;;;0.00;0.00;;;21.20;81.70;;;;;;4903586;29;20024;-83
2023/10/12 19:33:41;;;;;;;0.00;0.00;;;21.20;81.80;;;;;;4898764;29;20071;-82
2023/10/12 19:36:12;;;;;;;0.00;0.00;;;21.10;82.00;;;;;;4885410;29;20025;-84
2023/10/12 19:38:40;;;;;;;0.00;0.00;;;21.00;82.20;;;;;;4903622;29;20508;-82
2023/10/12 19:41:10;;;;;;;0.10;0.10;;;21.00;82.20;;;;;;4883426;29;20028;-82
2023/10/12 19:43:41;;;;;;;0.00;0.00;;;21.00;82.20;;;;;;4903580;29;20028;-84
2023/10/12 19:46:20;;;;;;;0.10;0.10;;;21.00;82.30;;;;;;4887255;29;20064;-88
2023/10/12 19:54:43;;;;;;;0.00;0.00;;;21.00;82.50;;;;;;4965942;23;20529;-85
2023/10/12 19:57:31;;;;;;;;;;;;;;;;;;;;;
